Details From SMJP - Paramaribo Johan A Pengel Intl
To TNCM - St Maarten - Princess Juliana Intl
Flight Number -
Tags decoded
Created
Modified
Stats Distance 887 nm / 1,643 km
Max Altitude 0 ft / 0 m
Waypoints 2
Social Downloads 3
Likes 0
Share VATSIM

Download

Looking for another format? Having issues loading an existing format? Contact us
Advertisement - Login to hide

Notes

Requested: SMJP TNCM

Route

SMJP TNCM

ID Type Via Altitude (ft/m) Position (lat/lon) Dist (leg/tot) Name
O SMJP APT - 0 / 0 5.45283 / -55.18778 - / 0 nm Paramaribo Johan A Pengel Intl
O TNCM APT - 0 / 0 18.04089 / -63.10897 887 / 887 nm St Maarten - Princess Juliana Intl

Altitude Profile

Advertisement - Login to hide

Weather


0- 5 10 15 20 25 30 35+ Temperature / °C

Clouds and Precipitation
Forecast for 2019-11-21 18:00 UTC. Updated 3 hours ago

Ground ~20,000 ft ~40,000 ft Winds

SMJP

Details ICAO SMJP (PBM)
Name Johan Adolf Pengel Intl
Region Suriname
Timezone America/Paramaribo (UTC-3.0)
Stats Elevation 59 ft / 18 m (AMSL)
Location 5.452850° -55.187800°
Runways 1
Magnetic Variation 17.621° W

METAR

SMJP 211800Z 06014KT 9999 -SHRA FEW015CB SCT020 32/23 Q1007 NOSIG

Decode

TAF

TAF SMJP 211600Z 2118/2218 11008KT 9999 SCT020 TX32/2118Z TN23/2209Z TEMPO 2118/2122 VRB12G22KT 4000 TSRA FEW010CB BKN015 BECMG 2122/2200 08005KT CAVOK BECMG 2208/2210 00000KT 0800 FG BKN001 FM221100 09008KT 9999 SCT020

Decode

Departure Runways

ID Width Length Bearing (true/mag) Surface Threshold Overrun Markings Lighting
11 151 ft / 46 m 11,428 ft / 3,483 m 89.69° / 107.31° ASPHALT 0 ft / 0 m 230 ft / 70 m PREC-APP EDGE THRESHOLD MALSF REIL-OMNI
29 151 ft / 46 m 11,428 ft / 3,483 m 269.69° / 287.31° ASPHALT 0 ft / 0 m 197 ft / 60 m APP EDGE THRESHOLD MALSF REIL-OMNI

TNCM

Details ICAO TNCM (SXM)
Name Princess Juliana Intl
Region Caribbean Netherlands, Aruba, Curaçao, Sint Maarten
Timezone Unknown
Stats Elevation 14 ft / 4 m (AMSL)
Location 18.040900° -63.108900°
Runways 1
Magnetic Variation 14.378° W

METAR

TNCM 211700Z 27015KT -SHRA SCT016TCU 26/23 Q1011 TEMPO SHRA RMK TCU SE

Decode

TAF

TAF TNCM 211747Z 2118/2218 27015KT P6SM VCSH SCT016 FM212330 01012KT P6SM VCSH SCT020 FM221200 35004KT P6SM SCT020

Decode

Destination Runways

ID Width Length Bearing (true/mag) Surface Threshold Overrun Markings Lighting
10 148 ft / 45 m 7,553 ft / 2,302 m 81.44° / 95.82° ASPHALT 331 ft / 101 m 164 ft / 50 m PREC-APP EDGE THRESHOLD REIL-OMNI
28 148 ft / 45 m 7,553 ft / 2,302 m 261.45° / 275.82° ASPHALT 0 ft / 0 m 200 ft / 61 m APP EDGE THRESHOLD

Popular Alternatives